Time;durP1;ratioP1;P1;durP2;ratioP2;P2;SDS_P1;SDS_P2;PMS_P1;PMS_P2;Temp;Humidity;BMP_temperature;BMP_pressure;BME280_temperature;BME280_humidity;BME280_pressure;Samples;Min_cycle;Max_cycle;Signal;HPM_P1;HPM_P2
2022/08/23 00:02:00;;;;;;;3.63;2.10;;;;;;;19.35;55.82;97983.47;5053260;28;20299;-70
2022/08/23 00:04:34;;;;;;;3.43;1.80;;;;;;;19.37;56.22;97985.88;5056275;28;20205;-70
2022/08/23 00:07:01;;;;;;;3.07;1.83;;;;;;;19.22;56.19;97978.66;5056620;28;20296;-70
2022/08/23 00:09:29;;;;;;;2.43;1.57;;;;;;;19.22;56.27;97984.06;5056048;28;20320;-70
2022/08/23 00:12:06;;;;;;;6.47;2.27;;;;;;;19.14;56.48;97971.09;5056129;28;20686;-70
2022/08/23 00:14:35;;;;;;;1.90;1.77;;;;;;;19.11;56.24;97968.16;5056437;28;20195;-70
2022/08/23 00:17:02;;;;;;;2.67;2.20;;;;;;;18.99;56.73;97968.47;5056374;28;20292;-70
2022/08/23 00:19:29;;;;;;;4.53;2.23;;;;;;;19.02;56.89;97970.63;5056231;28;20307;-70
2022/08/23 00:21:56;;;;;;;2.37;1.93;;;;;;;18.89;57.28;97979.28;5055953;28;20201;-70
2022/08/23 00:24:25;;;;;;;3.73;2.00;;;;;;;18.98;56.86;97969.56;5056255;28;20205;-70
2022/08/23 00:27:03;;;;;;;5.20;1.87;;;;;;;18.95;57.22;97974.69;5056165;28;20304;-70
2022/08/23 00:29:48;;;;;;;4.37;1.83;;;;;;;18.92;57.27;97978.72;5055548;28;20239;-70
2022/08/23 00:32:19;;;;;;;3.77;1.97;;;;;;;19.04;56.96;97975.72;5055736;28;20288;-70
2022/08/23 00:34:46;;;;;;;2.17;1.80;;;;;;;18.89;57.87;97971.22;5055718;28;20592;-70
2022/08/23 00:37:13;;;;;;;3.70;2.20;;;;;;;18.91;57.75;97965.56;5055944;28;20296;-70
2022/08/23 00:39:41;;;;;;;3.03;2.10;;;;;;;18.83;58.64;97966.09;5055825;28;20312;-70
2022/08/23 00:48:07;;;;;;;4.27;2.13;;;;;;;18.55;59.77;97958.63;5056029;28;20247;-70
2022/08/23 00:50:34;;;;;;;3.30;2.20;;;;;;;18.59;59.79;97968.56;5055660;28;20226;-70
2022/08/23 00:53:10;;;;;;;4.13;2.13;;;;;;;18.54;60.02;97965.88;5055680;28;20211;-70
2022/08/23 00:55:39;;;;;;;5.57;2.43;;;;;;;18.43;60.87;97977.75;5055337;28;20225;-70
2022/08/23 00:58:07;;;;;;;4.20;2.33;;;;;;;18.42;61.01;97969.94;5037593;28;20232;-70
2022/08/23 01:00:34;;;;;;;5.87;2.60;;;;;;;18.40;61.05;97970.22;5055716;28;20221;-70
2022/08/23 01:03:02;;;;;;;3.90;2.47;;;;;;;18.40;61.60;97972.09;5037784;28;20201;-70
2022/08/23 01:05:41;;;;;;;4.83;2.50;;;;;;;18.35;61.80;97961.31;5055107;28;20755;-70
2022/08/23 01:08:07;;;;;;;3.90;2.47;;;;;;;18.34;61.72;97965.91;5037567;28;20216;-71
2022/08/23 01:10:41;;;;;;;4.33;2.70;;;;;;;18.25;62.32;97969.38;5055593;28;20312;-70
2022/08/23 01:13:18;;;;;;;4.63;2.17;;;;;;;18.17;62.64;97964.53;5054743;28;20272;-70
2022/08/23 01:15:50;;;;;;;4.67;2.57;;;;;;;18.02;63.13;97964.53;5055055;28;20272;-70
2022/08/23 01:18:20;;;;;;;4.40;2.53;;;;;;;18.14;62.95;97970.47;5055215;28;20285;-70
2022/08/23 01:20:57;;;;;;;4.63;2.70;;;;;;;18.12;62.74;97965.34;5054794;28;20225;-70
2022/08/23 01:23:53;;;;;;;5.00;3.07;;;;;;;18.11;63.36;97962.94;5055112;28;20189;-70
2022/08/23 01:26:21;;;;;;;4.50;2.77;;;;;;;17.98;63.63;97974.22;5035752;28;20201;-70
2022/08/23 01:28:47;;;;;;;4.77;3.10;;;;;;;17.91;64.25;97971.00;5054516;28;20580;-70
2022/08/23 01:31:16;;;;;;;3.70;2.70;;;;;;;18.04;64.08;97971.25;5054456;28;20255;-70
2022/08/23 01:33:46;;;;;;;5.53;3.00;;;;;;;18.05;64.33;97967.50;5054922;28;20307;-70
2022/08/23 01:36:16;;;;;;;4.40;2.90;;;;;;;18.09;64.32;97973.94;5054855;28;20205;-70
2022/08/23 01:38:43;;;;;;;4.17;2.97;;;;;;;18.05;63.98;97969.38;5054771;28;20201;-70
2022/08/23 01:41:09;;;;;;;4.40;2.97;;;;;;;18.10;64.23;97969.38;5054692;28;20224;-70
2022/08/23 01:43:36;;;;;;;3.27;2.87;;;;;;;18.10;64.30;97975.56;5054326;28;20300;-70
2022/08/23 01:46:15;;;;;;;6.10;3.10;;;;;;;18.07;64.06;97970.72;5054536;28;20216;-70
2022/08/23 01:48:41;;;;;;;6.93;3.30;;;;;;;17.99;64.47;97970.44;5053999;28;20225;-70
2022/08/23 01:51:08;;;;;;;4.90;2.93;;;;;;;17.98;64.61;97972.34;5054800;28;20209;-70
2022/08/23 01:53:34;;;;;;;5.57;2.90;;;;;;;17.96;64.62;97976.38;5054410;28;20300;-70
2022/08/23 01:56:01;;;;;;;3.10;2.80;;;;;;;17.88;65.12;97980.41;5054336;28;20567;-70
2022/08/23 01:58:31;;;;;;;3.27;2.97;;;;;;;17.80;65.66;97986.31;5053929;28;20572;-70
2022/08/23 02:00:57;;;;;;;6.53;3.20;;;;;;;17.79;65.59;97982.00;5054216;28;20225;-70
2022/08/23 02:03:23;;;;;;;3.57;3.13;;;;;;;17.69;65.56;97981.16;5054200;28;20302;-70
2022/08/23 02:05:50;;;;;;;6.40;3.30;;;;;;;17.68;65.99;97987.59;5054272;28;20209;-70
2022/08/23 02:11:08;;;;;;;6.20;3.40;;;;;;;17.57;66.57;97985.97;5053943;28;20266;-70
2022/08/23 02:13:34;;;;;;;5.20;3.50;;;;;;;17.52;67.31;97986.78;5053838;28;20698;-70
2022/08/23 02:16:01;;;;;;;3.67;2.83;;;;;;;17.46;67.35;97982.44;5054122;28;20209;-70
2022/08/23 02:18:27;;;;;;;5.87;3.13;;;;;;;17.46;67.67;97987.03;5053768;28;20690;-70
2022/08/23 02:20:53;;;;;;;4.27;3.10;;;;;;;17.47;67.44;97989.44;5053666;28;20225;-70
2022/08/23 02:23:21;;;;;;;4.00;3.00;;;;;;;17.45;67.94;97990.75;5053935;28;20209;-70
2022/08/23 02:25:50;;;;;;;3.90;2.97;;;;;;;17.49;67.69;97987.31;5053666;28;20296;-70
2022/08/23 02:28:16;;;;;;;5.30;2.93;;;;;;;17.39;67.80;97983.72;5053776;28;20652;-70
2022/08/23 02:30:45;;;;;;;3.93;3.03;;;;;;;17.41;68.04;97982.44;5053463;28;20323;-70
2022/08/23 02:33:12;;;;;;;3.73;2.90;;;;;;;17.30;68.51;97990.69;5053762;28;20575;-70
2022/08/23 02:35:40;;;;;;;5.83;2.90;;;;;;;17.20;68.72;97991.44;5053472;28;20209;-70
2022/08/23 02:38:08;;;;;;;3.43;2.83;;;;;;;17.13;69.49;97996.25;5054249;28;20299;-70
2022/08/23 02:40:35;;;;;;;6.37;3.60;;;;;;;17.16;69.52;97989.56;5053647;28;20382;-70
2022/08/23 02:43:06;;;;;;;5.50;3.47;;;;;;;17.17;69.60;97994.69;5053662;28;20570;-70
2022/08/23 02:45:34;;;;;;;5.30;3.37;;;;;;;17.17;69.60;97986.63;5053656;28;20198;-70
2022/08/23 02:48:00;;;;;;;6.03;3.07;;;;;;;17.16;69.47;97985.00;5053475;28;20205;-70
2022/08/23 02:50:28;;;;;;;6.87;3.33;;;;;;;17.17;69.61;97985.78;5053484;28;20375;-70
2022/08/23 02:52:54;;;;;;;5.03;3.60;;;;;;;17.17;69.53;97992.00;5053143;28;20201;-70
2022/08/23 02:55:21;;;;;;;6.77;3.90;;;;;;;17.16;69.59;98000.31;5053442;28;20216;-70
2022/08/23 02:57:48;;;;;;;5.23;3.23;;;;;;;17.15;69.50;97999.47;5053476;28;20201;-70
2022/08/23 03:00:16;;;;;;;6.30;3.73;;;;;;;17.09;69.78;98005.09;5053347;28;20221;-70
2022/08/23 03:02:43;;;;;;;7.03;3.37;;;;;;;17.05;70.05;98004.03;5053418;28;20284;-70
2022/08/23 03:05:10;;;;;;;5.80;3.77;;;;;;;17.01;70.37;98001.03;5052898;28;20747;-70
2022/08/23 03:07:36;;;;;;;5.17;3.40;;;;;;;16.87;70.96;98007.16;5053261;28;20205;-70
2022/08/23 03:10:05;;;;;;;5.13;3.20;;;;;;;16.88;71.04;98004.19;5053158;28;20239;-69
2022/08/23 03:12:32;;;;;;;4.23;3.07;;;;;;;16.87;71.09;98002.56;5053041;28;20215;-70
2022/08/23 03:14:59;;;;;;;4.90;3.17;;;;;;;16.78;71.51;98000.66;5053315;28;20214;-70
2022/08/23 03:17:26;;;;;;;4.77;3.50;;;;;;;16.77;71.51;98005.19;5053123;28;20236;-70
2022/08/23 03:19:52;;;;;;;6.83;3.37;;;;;;;16.77;71.83;98007.06;5053539;28;20644;-70
2022/08/23 03:22:21;;;;;;;6.17;3.20;;;;;;;16.88;71.48;98012.22;5053218;28;20296;-70
2022/08/23 03:24:48;;;;;;;5.17;3.10;;;;;;;16.90;71.43;98010.09;5052929;28;20669;-70
2022/08/23 03:27:15;;;;;;;5.23;3.50;;;;;;;16.80;71.51;98006.56;5052796;28;20673;-70
2022/08/23 03:29:41;;;;;;;3.63;3.23;;;;;;;16.83;71.64;98004.16;5052588;28;20256;-70
2022/08/23 03:32:07;;;;;;;4.27;3.33;;;;;;;16.84;71.38;98000.41;5053064;28;20215;-70
2022/08/23 03:34:34;;;;;;;6.43;3.43;;;;;;;16.81;71.80;98003.63;5052706;28;20205;-70
2022/08/23 03:37:01;;;;;;;5.37;3.20;;;;;;;16.81;71.45;98006.31;5053672;28;20281;-70
2022/08/23 03:39:27;;;;;;;7.17;3.07;;;;;;;16.73;72.33;98004.09;5056490;28;20588;-70
2022/08/23 03:41:54;;;;;;;6.97;3.47;;;;;;;16.71;72.14;98008.94;5056356;28;20236;-70
2022/08/23 03:44:20;;;;;;;5.00;3.07;;;;;;;16.77;71.91;98015.13;5056605;28;20292;-70
2022/08/23 03:46:46;;;;;;;4.90;3.10;;;;;;;16.84;71.09;98015.72;5057005;28;20205;-70
2022/08/23 03:49:13;;;;;;;5.73;3.13;;;;;;;16.78;71.51;98014.84;5056260;28;20758;-70
2022/08/23 03:51:39;;;;;;;8.10;3.30;;;;;;;16.81;71.81;98021.59;5057421;28;20297;-69
2022/08/23 03:54:06;;;;;;;4.97;3.00;;;;;;;16.73;71.96;98022.88;5056750;28;20220;-70
2022/08/23 03:56:35;;;;;;;3.60;2.90;;;;;;;16.77;71.92;98024.00;5056305;28;20206;-69
2022/08/23 03:59:07;;;;;;;5.83;2.90;;;;;;;16.80;71.98;98031.53;5056414;28;20312;-70
2022/08/23 04:01:33;;;;;;;4.63;3.33;;;;;;;16.77;72.28;98028.53;5055958;28;20280;-70
2022/08/23 04:04:00;;;;;;;4.67;3.50;;;;;;;16.76;72.32;98033.13;5056186;28;20205;-70
2022/08/23 04:06:28;;;;;;;6.20;3.20;;;;;;;16.80;72.54;98030.72;5056238;28;20292;-70
2022/08/23 04:08:55;;;;;;;9.13;3.90;;;;;;;16.79;72.46;98032.59;5056145;28;20233;-70
2022/08/23 04:11:23;;;;;;;5.23;3.10;;;;;;;16.77;72.40;98031.22;5056363;28;20205;-69
2022/08/23 04:13:49;;;;;;;3.90;3.20;;;;;;;16.71;72.77;98034.94;5056263;28;20201;-70
2022/08/23 04:16:17;;;;;;;5.40;3.40;;;;;;;16.70;72.79;98038.72;5056008;28;20205;-70
2022/08/23 04:18:45;;;;;;;4.03;3.53;;;;;;;16.60;73.04;98036.75;5056182;28;20201;-70
2022/08/23 04:21:18;;;;;;;3.30;3.07;;;;;;;16.57;73.26;98036.47;5056069;28;20300;-70
2022/08/23 04:23:45;;;;;;;8.67;3.70;;;;;;;16.52;73.91;98045.28;5056017;28;20279;-70
2022/08/23 04:26:12;;;;;;;5.33;3.43;;;;;;;16.50;73.98;98035.84;5055884;28;20568;-70
2022/08/23 04:28:38;;;;;;;6.47;3.70;;;;;;;16.49;73.54;98043.13;5055453;28;20215;-70
2022/08/23 04:31:05;;;;;;;5.83;3.53;;;;;;;16.33;74.46;98054.75;5055814;28;20220;-70
2022/08/23 04:33:33;;;;;;;5.47;3.80;;;;;;;16.38;74.37;98040.59;5055516;28;20365;-70
2022/08/23 04:36:04;;;;;;;8.27;4.33;;;;;;;16.44;74.33;98058.38;5055844;28;20205;-70
2022/08/23 04:38:31;;;;;;;5.93;3.83;;;;;;;16.45;74.57;98059.97;5055915;28;20199;-70
2022/08/23 04:43:43;;;;;;;6.77;3.67;;;;;;;16.61;72.82;98067.09;5055070;28;20266;-69
2022/08/23 04:46:09;;;;;;;5.70;3.30;;;;;;;16.65;72.33;98060.94;5054941;28;20209;-70
2022/08/23 04:48:36;;;;;;;6.73;3.40;;;;;;;16.66;72.40;98067.97;5055080;28;20255;-70
2022/08/23 04:51:03;;;;;;;5.07;3.10;;;;;;;16.70;72.27;98066.34;5054817;28;20663;-70
2022/08/23 04:53:29;;;;;;;11.03;3.80;;;;;;;16.71;72.53;98070.66;5055088;28;20205;-69
2022/08/23 04:55:56;;;;;;;6.17;3.67;;;;;;;16.74;72.34;98072.03;5055250;28;20767;-69
2022/08/23 04:58:22;;;;;;;4.73;3.27;;;;;;;16.79;72.04;98078.22;5055097;28;20201;-70
2022/08/23 05:00:51;;;;;;;4.30;3.40;;;;;;;16.80;72.26;98076.34;5054549;28;20312;-70
2022/08/23 05:03:18;;;;;;;6.87;3.20;;;;;;;16.80;71.61;98081.72;5054743;28;20216;-70
2022/08/23 05:05:46;;;;;;;5.47;3.30;;;;;;;16.83;71.61;98078.53;5054876;28;20701;-69
2022/08/23 05:08:12;;;;;;;5.20;3.30;;;;;;;16.81;71.75;98081.47;5055011;28;20300;-69
2022/08/23 05:10:39;;;;;;;5.90;2.90;;;;;;;16.84;71.49;98080.16;5054745;28;20320;-70
2022/08/23 05:13:05;;;;;;;6.93;3.70;;;;;;;16.83;71.62;98079.34;5054738;28;20208;-70
2022/08/23 05:15:31;;;;;;;6.63;3.20;;;;;;;16.93;71.48;98084.81;5054891;28;20649;-70
2022/08/23 05:17:58;;;;;;;5.70;3.43;;;;;;;16.98;71.43;98084.81;5054880;28;20212;-69
2022/08/23 05:20:24;;;;;;;6.03;3.90;;;;;;;17.05;70.85;98090.75;5054633;28;20315;-69
2022/08/23 05:22:51;;;;;;;7.17;3.33;;;;;;;17.03;71.28;98092.09;5054596;28;20205;-70
2022/08/23 05:25:17;;;;;;;7.73;3.33;;;;;;;17.02;71.01;98085.13;5054513;28;20205;-70
2022/08/23 05:27:44;;;;;;;6.63;3.57;;;;;;;17.09;70.97;98086.50;5054709;28;20631;-69
2022/08/23 05:30:11;;;;;;;5.43;3.30;;;;;;;17.15;70.76;98093.50;5054351;28;20231;-69
2022/08/23 05:32:38;;;;;;;3.20;2.90;;;;;;;17.21;70.32;98081.75;5054062;28;20209;-69
2022/08/23 05:35:04;;;;;;;4.33;3.00;;;;;;;17.26;69.91;98095.19;5054097;28;20215;-69
2022/08/23 05:37:31;;;;;;;4.40;3.33;;;;;;;17.28;69.64;98094.94;5054273;28;20291;-69
2022/08/23 05:39:57;;;;;;;4.27;3.30;;;;;;;17.33;69.88;98092.28;5053934;28;20725;-70
2022/08/23 05:42:24;;;;;;;5.73;3.50;;;;;;;17.34;69.77;98093.91;5054146;28;20308;-70
2022/08/23 05:44:50;;;;;;;4.67;3.37;;;;;;;17.37;69.73;98096.06;5054175;28;20209;-69
2022/08/23 05:47:18;;;;;;;5.93;3.03;;;;;;;17.46;69.37;98092.63;5054512;28;20296;-69
2022/08/23 05:49:44;;;;;;;5.83;3.67;;;;;;;17.49;69.29;98092.13;5054126;28;20232;-70
2022/08/23 05:52:13;;;;;;;5.07;3.30;;;;;;;17.57;69.12;98094.31;5053625;28;20665;-70
2022/08/23 05:54:40;;;;;;;4.40;3.40;;;;;;;17.63;68.68;98093.25;5053870;28;20201;-70
2022/08/23 05:57:07;;;;;;;6.20;3.47;;;;;;;17.83;67.91;98101.41;5054072;28;20205;-70
2022/08/23 05:59:34;;;;;;;5.13;3.30;;;;;;;17.76;68.29;98102.72;5053350;28;20312;-69
2022/08/23 06:02:00;;;;;;;3.97;3.10;;;;;;;17.79;68.05;98108.41;5053816;28;20295;-69
2022/08/23 06:04:27;;;;;;;5.87;3.10;;;;;;;17.91;67.45;98117.03;5054216;28;20292;-69
2022/08/23 06:06:57;;;;;;;5.63;3.00;;;;;;;17.91;67.29;98114.34;5053835;28;20287;-69
2022/08/23 06:09:23;;;;;;;4.97;3.00;;;;;;;17.95;66.20;98107.38;5053758;28;20229;-69
2022/08/23 06:11:51;;;;;;;5.33;3.40;;;;;;;18.05;65.79;98120.84;5053386;28;20205;-69
2022/08/23 06:14:18;;;;;;;6.70;3.27;;;;;;;18.12;66.54;98117.91;5053321;28;20571;-69
2022/08/23 06:16:47;;;;;;;4.07;3.30;;;;;;;18.16;66.13;98117.13;5053335;28;20648;-69
2022/08/23 06:19:15;;;;;;;6.80;3.33;;;;;;;18.27;65.65;98121.44;5053403;28;20696;-69
2022/08/23 06:21:42;;;;;;;5.00;3.10;;;;;;;18.34;65.63;98121.22;5053823;28;20575;-69
2022/08/23 06:24:09;;;;;;;8.80;6.77;;;;;;;18.48;64.58;98117.75;5053170;28;20215;-69
2022/08/23 06:26:38;;;;;;;9.63;3.80;;;;;;;18.49;64.71;98122.06;5053273;28;20208;-69
2022/08/23 06:29:08;;;;;;;4.57;3.80;;;;;;;18.52;63.74;98124.22;5052990;28;20236;-69
2022/08/23 06:31:47;;;;;;;6.73;3.53;;;;;;;18.53;63.85;98130.38;5053451;28;20189;-69
2022/08/23 06:34:21;;;;;;;5.63;3.53;;;;;;;18.50;63.86;98123.66;5053591;28;20200;-69
2022/08/23 06:36:50;;;;;;;6.67;3.47;;;;;;;18.58;63.93;98125.81;5053407;28;20196;-69
2022/08/23 06:39:18;;;;;;;9.40;5.07;;;;;;;18.67;63.47;98118.00;5053367;28;20251;-69
2022/08/23 06:41:47;;;;;;;5.20;3.67;;;;;;;18.63;63.43;98128.53;5053273;28;20304;-69
2022/08/23 06:44:14;;;;;;;6.30;3.57;;;;;;;18.73;63.33;98120.44;5053316;28;20664;-69
2022/08/23 06:46:41;;;;;;;7.63;4.23;;;;;;;18.78;63.29;98128.53;5053279;28;20217;-69
2022/08/23 06:49:08;;;;;;;12.60;3.83;;;;;;;18.77;63.14;98126.91;5052916;28;20228;-69
2022/08/23 06:51:41;;;;;;;7.43;3.60;;;;;;;18.96;62.88;98125.28;5052872;28;20292;-69
2022/08/23 06:54:11;;;;;;;9.00;4.07;;;;;;;18.96;62.46;98130.66;5053257;28;20266;-69
2022/08/23 06:56:38;;;;;;;4.67;3.57;;;;;;;19.10;62.46;98131.72;5052916;28;20210;-69
2022/08/23 06:59:06;;;;;;;8.30;3.70;;;;;;;19.33;62.05;98123.13;5052998;28;20240;-69
2022/08/23 07:01:52;;;;;;;8.27;3.93;;;;;;;19.44;61.37;98132.81;5052902;28;20258;-69
2022/08/23 07:04:24;;;;;;;6.50;3.70;;;;;;;19.48;61.29;98132.25;5052916;28;20287;-69
2022/08/23 07:06:51;;;;;;;7.47;4.03;;;;;;;19.54;61.42;98127.38;5053430;28;20193;-69
2022/08/23 07:09:18;;;;;;;7.87;4.10;;;;;;;19.68;61.29;98128.41;5052326;28;20236;-70
2022/08/23 07:11:45;;;;;;;6.53;3.60;;;;;;;19.78;60.83;98139.16;5053139;28;20209;-69
2022/08/23 07:14:15;;;;;;;5.73;3.80;;;;;;;19.82;59.95;98134.03;5056548;28;20565;-70
2022/08/23 07:16:46;;;;;;;3.43;3.13;;;;;;;20.01;60.01;98140.44;5056519;28;20220;-69
2022/08/23 07:19:13;;;;;;;4.83;3.23;;;;;;;20.10;59.82;98140.69;5056698;28;20315;-69
2022/08/23 07:21:41;;;;;;;10.57;3.50;;;;;;;20.18;59.80;98134.72;5056420;28;20611;-70
2022/08/23 07:24:08;;;;;;;8.57;3.57;;;;;;;20.19;59.28;98139.00;5056686;28;20209;-69
2022/08/23 07:26:36;;;;;;;7.50;3.50;;;;;;;20.39;59.21;98145.09;5056680;28;20806;-70
2022/08/23 07:29:06;;;;;;;13.63;9.60;;;;;;;20.39;58.59;98145.09;5056223;28;20320;-69
2022/08/23 07:31:38;;;;;;;11.27;4.37;;;;;;;20.40;58.33;98145.91;5056863;28;20296;-70
2022/08/23 07:34:06;;;;;;;5.97;3.50;;;;;;;20.56;58.36;98145.53;5057408;28;20276;-69
2022/08/23 07:36:33;;;;;;;11.17;3.93;;;;;;;20.71;57.62;98140.03;5056551;28;20237;-70
2022/08/23 07:39:00;;;;;;;7.17;4.40;;;;;;;20.76;57.66;98147.31;5056687;28;20225;-68
2022/08/23 07:41:30;;;;;;;10.67;5.20;;;;;;;20.70;56.96;98146.53;5056244;28;20617;-68
2022/08/23 07:44:01;;;;;;;10.63;4.80;;;;;;;20.79;57.64;98154.84;5056368;28;20209;-69
2022/08/23 07:46:28;;;;;;;8.63;4.50;;;;;;;20.96;57.30;98155.28;5056592;28;20190;-69
2022/08/23 07:48:57;;;;;;;8.03;4.50;;;;;;;21.11;56.37;98153.25;5056437;28;20213;-68
2022/08/23 07:51:24;;;;;;;8.17;4.30;;;;;;;21.28;56.16;98160.94;5056265;28;20692;-68
2022/08/23 07:53:51;;;;;;;6.67;3.97;;;;;;;21.28;55.72;98158.22;5055926;28;20215;-69
2022/08/23 07:56:19;;;;;;;6.30;4.10;;;;;;;21.18;55.80;98158.31;5056393;28;20304;-68
2022/08/23 07:58:46;;;;;;;10.70;4.47;;;;;;;21.22;55.92;98162.09;5055696;28;20295;-69
2022/08/23 08:01:14;;;;;;;8.67;5.93;;;;;;;21.52;54.62;98159.88;5056365;28;20288;-68
2022/08/23 08:03:44;;;;;;;4.93;3.50;;;;;;;21.70;54.68;98161.09;5056174;28;20338;-68
2022/08/23 08:06:18;;;;;;;7.87;3.93;;;;;;;21.81;53.71;98162.59;5056229;28;20292;-68
2022/08/23 08:08:47;;;;;;;6.27;4.20;;;;;;;21.80;54.45;98169.88;5055992;28;20280;-69
2022/08/23 08:11:19;;;;;;;8.37;3.90;;;;;;;21.99;54.35;98164.53;5054840;28;20221;-69
2022/08/23 08:13:47;;;;;;;6.03;3.60;;;;;;;22.13;53.69;98168.97;5055389;28;20232;-69
2022/08/23 08:16:26;;;;;;;5.20;3.50;;;;;;;22.15;53.98;98165.97;5055979;28;20759;-69
2022/08/23 08:18:59;;;;;;;4.47;3.07;;;;;;;22.37;53.44;98169.72;5055932;28;20276;-68
2022/08/23 08:21:26;;;;;;;7.67;3.93;;;;;;;22.55;51.96;98171.69;5055657;28;20204;-69
2022/08/23 08:23:53;;;;;;;7.63;3.47;;;;;;;22.69;51.82;98167.13;5055414;28;20205;-69
2022/08/23 08:26:21;;;;;;;7.33;3.00;;;;;;;22.74;50.46;98177.09;5055942;28;20664;-69
2022/08/23 08:28:47;;;;;;;4.73;2.90;;;;;;;22.62;50.18;98165.91;5056099;28;20205;-68
2022/08/23 08:31:14;;;;;;;7.83;3.13;;;;;;;22.88;50.20;98167.13;5055469;28;20225;-68
2022/08/23 08:33:40;;;;;;;5.57;2.80;;;;;;;23.02;49.49;98165.28;5055360;28;20224;-68
2022/08/23 08:36:08;;;;;;;5.00;3.23;;;;;;;22.84;49.71;98172.31;5055914;28;20722;-68
2022/08/23 08:38:39;;;;;;;5.63;3.80;;;;;;;22.84;50.20;98166.91;5055572;28;20212;-69
2022/08/23 08:41:18;;;;;;;6.70;3.27;;;;;;;23.05;49.12;98172.81;5055430;28;20192;-69
2022/08/23 08:44:12;;;;;;;5.15;2.80;;;;;;;23.15;49.19;98173.44;5055282;28;20197;-69
2022/08/23 08:46:46;;;;;;;3.38;3.08;;;;;;;23.44;48.62;98182.22;5055275;28;20284;-69
2022/08/23 08:49:42;;;;;;;6.38;2.88;;;;;;;23.54;47.35;98173.06;5055427;28;20235;-69
2022/08/23 08:52:23;;;;;;;7.20;3.05;;;;;;;23.82;47.23;98172.00;5054821;28;20741;-69
2022/08/23 08:54:52;;;;;;;5.55;3.03;;;;;;;23.66;47.59;98181.53;5037636;28;20280;-69
2022/08/23 08:57:21;;;;;;;6.82;2.95;;;;;;;23.72;47.86;98175.72;5055374;28;20227;-69
2022/08/23 09:00:13;;;;;;;6.30;3.00;;;;;;;24.07;47.36;98180.50;5055006;28;20287;-69
2022/08/23 09:02:40;;;;;;;6.30;2.90;;;;;;;24.24;46.95;98182.59;5055212;28;20233;-69
2022/08/23 09:05:25;;;;;;;4.28;3.13;;;;;;;24.39;46.60;98182.28;5055257;28;20616;-69
2022/08/23 09:08:13;;;;;;;5.25;3.17;;;;;;;24.43;45.74;98186.78;5055083;28;20197;-69
2022/08/23 09:10:39;;;;;;;5.35;3.10;;;;;;;24.60;45.72;98183.47;5054768;28;20247;-69
2022/08/23 09:13:24;;;;;;;7.60;3.05;;;;;;;24.70;45.98;98178.59;5054695;28;20222;-69
2022/08/23 09:16:22;;;;;;;6.40;2.70;;;;;;;25.08;44.75;98179.06;5054411;28;20682;-69
2022/08/23 09:18:49;;;;;;;6.22;2.95;;;;;;;25.08;44.25;98176.34;5054316;28;20605;-69
2022/08/23 09:21:16;;;;;;;7.53;2.63;;;;;;;25.14;43.20;98175.13;5054532;28;20740;-69
2022/08/23 09:23:45;;;;;;;7.45;2.72;;;;;;;25.28;41.90;98179.41;5054896;28;20228;-70
2022/08/23 09:26:22;;;;;;;4.85;2.50;;;;;;;25.23;41.62;98173.28;5054414;28;20659;-69
2022/08/23 09:28:52;;;;;;;5.35;2.67;;;;;;;25.40;41.28;98174.19;5054859;28;20208;-68
2022/08/23 09:31:40;;;;;;;4.60;2.30;;;;;;;25.39;40.00;98177.22;5054677;28;20235;-69
2022/08/23 09:34:07;;;;;;;5.60;2.20;;;;;;;25.35;38.47;98173.53;5054590;28;20657;-69
2022/08/23 09:36:38;;;;;;;7.05;2.00;;;;;;;25.62;37.46;98184.25;5054182;28;20215;-69
2022/08/23 09:39:08;;;;;;;2.75;2.17;;;;;;;25.71;37.60;98176.91;5054332;28;20225;-69
2022/08/23 09:41:38;;;;;;;4.97;1.83;;;;;;;26.03;36.42;98173.88;5054439;28;20196;-69
2022/08/23 09:44:15;;;;;;;4.10;1.85;;;;;;;26.31;35.49;98180.69;5054271;28;20279;-68
2022/08/23 09:46:41;;;;;;;5.82;2.45;;;;;;;26.34;36.33;98180.06;5054329;28;20189;-69
2022/08/23 09:49:28;;;;;;;4.40;1.83;;;;;;;26.27;33.80;98179.72;5053757;28;20237;-68
2022/08/23 09:51:59;;;;;;;1.98;1.70;;;;;;;26.30;33.78;98174.47;5053886;28;20255;-69
2022/08/23 09:54:31;;;;;;;2.47;1.70;;;;;;;26.23;33.02;98178.78;5036306;28;20575;-68
2022/08/23 09:57:05;;;;;;;3.97;1.98;;;;;;;26.37;33.86;98180.22;5054239;28;20201;-68
2022/08/23 09:59:50;;;;;;;2.20;1.52;;;;;;;26.63;33.00;98178.38;5054333;28;20316;-69
2022/08/23 10:02:34;;;;;;;2.70;1.88;;;;;;;26.83;33.27;98182.41;5053811;28;20194;-69
2022/08/23 10:05:09;;;;;;;3.72;1.92;;;;;;;26.82;33.60;98178.09;5053475;28;20656;-69
2022/08/23 10:07:52;;;;;;;4.55;1.80;;;;;;;26.80;33.55;98175.69;5053882;28;20193;-69
2022/08/23 10:10:32;;;;;;;5.35;2.05;;;;;;;27.00;33.44;98169.56;5053986;28;20243;-69
2022/08/23 10:12:59;;;;;;;3.50;1.95;;;;;;;26.85;33.65;98171.97;5053718;28;20212;-69
2022/08/23 10:15:36;;;;;;;2.78;1.70;;;;;;;26.53;34.09;98177.84;5053378;28;20205;-69
2022/08/23 10:18:11;;;;;;;1.90;1.63;;;;;;;27.08;33.17;98175.34;5053709;28;20208;-69
2022/08/23 10:20:54;;;;;;;4.05;2.10;;;;;;;27.02;32.30;98163.78;5035570;28;20224;-69
2022/08/23 10:23:52;;;;;;;5.57;2.05;;;;;;;26.87;32.15;98162.34;5036643;28;20278;-69
2022/08/23 10:26:27;;;;;;;2.60;1.95;;;;;;;27.00;32.72;98160.59;5035671;28;20529;-69
2022/08/23 10:32:24;;;;;;;2.35;1.58;;;;;;;27.04;31.89;98158.78;5053408;28;20323;-71
2022/08/23 10:34:59;;;;;;;2.47;1.83;;;;;;;27.44;30.78;98159.44;5053546;28;20260;-69
2022/08/23 10:37:41;;;;;;;3.20;1.80;;;;;;;27.40;30.46;98155.75;5053652;28;20235;-69
2022/08/23 10:40:15;;;;;;;3.80;1.90;;;;;;;27.68;29.62;98156.94;5053453;28;20279;-69
2022/08/23 10:43:09;;;;;;;2.60;1.40;;;;;;;27.64;30.01;98151.34;5035476;28;20192;-69
2022/08/23 10:45:38;;;;;;;1.92;1.60;;;;;;;27.70;30.22;98152.75;5053232;28;20288;-68
2022/08/23 10:48:25;;;;;;;3.08;1.67;;;;;;;27.73;29.23;98152.09;5053479;28;20205;-69
2022/08/23 10:50:57;;;;;;;3.65;1.75;;;;;;;27.43;29.46;98147.69;5052894;28;20235;-69
2022/08/23 10:53:45;;;;;;;1.80;1.60;;;;;;;27.56;30.04;98148.63;5053327;28;20209;-69
2022/08/23 10:56:16;;;;;;;1.50;1.40;;;;;;;27.54;29.00;98143.47;5053192;28;20194;-69
2022/08/23 10:58:45;;;;;;;4.00;1.58;;;;;;;27.84;27.76;98147.91;5053167;28;20200;-70
2022/08/23 11:01:40;;;;;;;1.70;1.60;;;;;;;27.78;28.42;98154.66;5053177;28;20288;-69
2022/08/23 11:04:21;;;;;;;1.95;1.50;;;;;;;27.35;29.11;98143.03;5028355;28;20205;-69
2022/08/23 11:06:53;;;;;;;4.63;1.92;;;;;;;27.31;29.55;98136.63;5036030;28;20726;-69
2022/08/23 11:09:22;;;;;;;2.40;2.13;;;;;;;27.44;30.18;98141.09;5053003;28;20266;-69
2022/08/23 11:11:50;;;;;;;3.55;1.92;;;;;;;26.63;31.21;98139.38;5052857;28;20315;-70
2022/08/23 11:14:32;;;;;;;1.98;1.60;;;;;;;26.70;31.04;98139.72;5052901;28;20209;-70
2022/08/23 11:17:02;;;;;;;2.88;1.90;;;;;;;26.88;31.34;98124.97;5053036;28;20197;-71
2022/08/23 11:19:49;;;;;;;2.40;1.80;;;;;;;27.71;30.53;98137.94;5052712;28;20696;-69
2022/08/23 11:22:22;;;;;;;3.00;1.85;;;;;;;27.20;30.46;98131.84;5052653;28;20563;-69
2022/08/23 11:24:54;;;;;;;3.78;2.00;;;;;;;27.23;31.29;98129.28;5052970;28;20199;-68
2022/08/23 11:27:41;;;;;;;3.17;2.03;;;;;;;26.97;31.27;98128.47;5052361;28;20538;-70
2022/08/23 11:30:33;;;;;;;2.17;2.00;;;;;;;26.80;31.62;98123.84;5052838;28;20320;-69
2022/08/23 11:33:09;;;;;;;3.17;2.00;;;;;;;27.12;31.58;98111.59;5050451;28;20205;-69
2022/08/23 11:35:43;;;;;;;3.10;1.80;;;;;;;27.48;30.89;98116.69;5052575;28;20195;-70
2022/08/23 11:38:09;;;;;;;1.98;1.77;;;;;;;27.30;31.23;98112.41;5052493;28;20653;-69
2022/08/23 11:40:56;;;;;;;6.05;2.08;;;;;;;26.94;31.51;98108.09;5052609;28;20225;-70
2022/08/23 11:43:31;;;;;;;5.07;2.15;;;;;;;27.08;31.83;98118.03;5052800;28;20626;-69
2022/08/23 11:46:25;;;;;;;2.45;1.98;;;;;;;27.47;32.04;98115.06;5053026;28;20189;-69
2022/08/23 11:49:26;;;;;;;3.67;1.95;;;;;;;27.83;30.40;98116.25;5052517;28;20239;-70
2022/08/23 11:52:15;;;;;;;1.75;1.63;;;;;;;27.64;30.43;98109.53;5052989;28;20296;-69
2022/08/23 11:55:17;;;;;;;2.67;1.70;;;;;;;27.68;30.65;98111.31;5052744;28;20292;-70
2022/08/23 11:58:02;;;;;;;4.70;1.90;;;;;;;27.70;30.57;98109.03;5035329;28;20628;-69
2022/08/23 12:00:47;;;;;;;3.10;2.05;;;;;;;27.61;30.65;98104.72;5056437;28;20229;-70
2022/08/23 12:03:54;;;;;;;3.35;2.10;;;;;;;27.68;31.14;98105.84;5057063;28;20280;-69
2022/08/23 12:06:33;;;;;;;6.18;2.38;;;;;;;27.71;30.48;98107.13;4994981;28;20209;-69
2022/08/23 12:09:03;;;;;;;5.15;2.05;;;;;;;27.74;30.78;98100.97;4994390;28;20306;-69